sensor_id;sensor_type;location;lat;lon;timestamp;P1;durP1;ratioP1;P2;durP2;ratioP2
32874;SDS011;40468;42.128;24.750;2023-12-28T00:01:14;26.77;;;9.30;;
32874;SDS011;40468;42.128;24.750;2023-12-28T00:02:46;23.95;;;9.25;;
32874;SDS011;40468;42.128;24.750;2023-12-28T00:04:18;21.30;;;8.55;;
32874;SDS011;40468;42.128;24.750;2023-12-28T00:05:48;24.92;;;9.32;;
32874;SDS011;40468;42.128;24.750;2023-12-28T00:07:20;24.48;;;9.35;;
32874;SDS011;40468;42.128;24.750;2023-12-28T00:08:52;25.77;;;10.35;;
32874;SDS011;40468;42.128;24.750;2023-12-28T00:10:25;25.20;;;9.68;;
32874;SDS011;40468;42.128;24.750;2023-12-28T00:11:56;19.90;;;9.45;;
32874;SDS011;40468;42.128;24.750;2023-12-28T00:15:00;20.83;;;8.65;;
32874;SDS011;40468;42.128;24.750;2023-12-28T00:16:32;24.45;;;9.40;;
32874;SDS011;40468;42.128;24.750;2023-12-28T00:18:04;27.50;;;9.18;;
32874;SDS011;40468;42.128;24.750;2023-12-28T00:19:36;20.92;;;10.38;;
32874;SDS011;40468;42.128;24.750;2023-12-28T00:21:06;21.92;;;9.30;;
32874;SDS011;40468;42.128;24.750;2023-12-28T00:22:38;24.25;;;8.75;;
32874;SDS011;40468;42.128;24.750;2023-12-28T00:24:11;19.17;;;8.55;;
32874;SDS011;40468;42.128;24.750;2023-12-28T00:25:42;16.30;;;7.93;;
32874;SDS011;40468;42.128;24.750;2023-12-28T00:27:13;21.55;;;8.10;;
32874;SDS011;40468;42.128;24.750;2023-12-28T00:28:45;20.80;;;9.30;;
32874;SDS011;40468;42.128;24.750;2023-12-28T00:30:16;18.27;;;9.05;;
32874;SDS011;40468;42.128;24.750;2023-12-28T00:31:48;22.45;;;8.93;;
32874;SDS011;40468;42.128;24.750;2023-12-28T00:33:19;23.05;;;9.93;;
32874;SDS011;40468;42.128;24.750;2023-12-28T00:34:51;19.90;;;8.82;;
32874;SDS011;40468;42.128;24.750;2023-12-28T00:36:22;22.27;;;9.63;;
32874;SDS011;40468;42.128;24.750;2023-12-28T00:37:53;22.30;;;10.07;;
32874;SDS011;40468;42.128;24.750;2023-12-28T00:39:26;22.67;;;9.85;;
32874;SDS011;40468;42.128;24.750;2023-12-28T00:40:58;21.55;;;8.48;;
32874;SDS011;40468;42.128;24.750;2023-12-28T00:42:28;22.40;;;8.40;;
32874;SDS011;40468;42.128;24.750;2023-12-28T00:44:00;18.80;;;8.02;;
32874;SDS011;40468;42.128;24.750;2023-12-28T00:45:32;16.33;;;6.65;;
32874;SDS011;40468;42.128;24.750;2023-12-28T00:47:04;18.33;;;7.40;;
32874;SDS011;40468;42.128;24.750;2023-12-28T00:48:36;14.52;;;7.22;;
32874;SDS011;40468;42.128;24.750;2023-12-28T00:50:08;17.15;;;7.85;;
32874;SDS011;40468;42.128;24.750;2023-12-28T00:51:41;17.77;;;6.93;;
32874;SDS011;40468;42.128;24.750;2023-12-28T00:53:13;17.63;;;7.43;;
32874;SDS011;40468;42.128;24.750;2023-12-28T00:54:46;21.00;;;8.15;;
32874;SDS011;40468;42.128;24.750;2023-12-28T00:56:18;19.27;;;7.50;;
32874;SDS011;40468;42.128;24.750;2023-12-28T00:57:50;17.17;;;7.63;;
32874;SDS011;40468;42.128;24.750;2023-12-28T00:59:22;15.52;;;6.82;;
32874;SDS011;40468;42.128;24.750;2023-12-28T01:00:53;15.15;;;6.85;;
32874;SDS011;40468;42.128;24.750;2023-12-28T01:03:57;14.15;;;6.30;;
32874;SDS011;40468;42.128;24.750;2023-12-28T01:05:29;13.70;;;5.00;;
32874;SDS011;40468;42.128;24.750;2023-12-28T01:07:00;18.83;;;5.88;;
32874;SDS011;40468;42.128;24.750;2023-12-28T01:08:34;11.40;;;5.47;;
32874;SDS011;40468;42.128;24.750;2023-12-28T01:10:07;21.48;;;6.03;;
32874;SDS011;40468;42.128;24.750;2023-12-28T01:11:39;13.75;;;5.95;;
32874;SDS011;40468;42.128;24.750;2023-12-28T01:13:11;12.57;;;4.65;;
32874;SDS011;40468;42.128;24.750;2023-12-28T01:14:42;11.98;;;5.10;;
32874;SDS011;40468;42.128;24.750;2023-12-28T01:16:13;13.13;;;5.93;;
32874;SDS011;40468;42.128;24.750;2023-12-28T01:17:46;12.60;;;5.70;;
32874;SDS011;40468;42.128;24.750;2023-12-28T01:19:16;11.75;;;4.97;;
32874;SDS011;40468;42.128;24.750;2023-12-28T01:20:49;11.63;;;5.18;;
32874;SDS011;40468;42.128;24.750;2023-12-28T01:22:21;10.55;;;5.15;;
32874;SDS011;40468;42.128;24.750;2023-12-28T01:23:52;12.07;;;5.35;;
32874;SDS011;40468;42.128;24.750;2023-12-28T01:25:25;13.98;;;5.45;;
32874;SDS011;40468;42.128;24.750;2023-12-28T01:26:56;10.13;;;4.35;;
32874;SDS011;40468;42.128;24.750;2023-12-28T01:28:28;13.07;;;5.53;;
32874;SDS011;40468;42.128;24.750;2023-12-28T01:30:00;10.57;;;5.25;;
32874;SDS011;40468;42.128;24.750;2023-12-28T01:31:31;10.68;;;5.05;;
32874;SDS011;40468;42.128;24.750;2023-12-28T01:33:03;9.50;;;5.20;;
32874;SDS011;40468;42.128;24.750;2023-12-28T01:34:34;12.95;;;5.45;;
32874;SDS011;40468;42.128;24.750;2023-12-28T01:36:14;12.57;;;6.03;;
32874;SDS011;40468;42.128;24.750;2023-12-28T01:37:47;15.85;;;7.85;;
32874;SDS011;40468;42.128;24.750;2023-12-28T01:39:18;14.30;;;7.70;;
32874;SDS011;40468;42.128;24.750;2023-12-28T01:40:52;12.93;;;6.40;;
32874;SDS011;40468;42.128;24.750;2023-12-28T01:42:23;14.15;;;6.07;;
32874;SDS011;40468;42.128;24.750;2023-12-28T01:43:55;13.23;;;5.88;;
32874;SDS011;40468;42.128;24.750;2023-12-28T01:45:26;11.38;;;5.90;;
32874;SDS011;40468;42.128;24.750;2023-12-28T01:46:58;11.75;;;5.35;;
32874;SDS011;40468;42.128;24.750;2023-12-28T01:48:29;12.68;;;6.25;;
32874;SDS011;40468;42.128;24.750;2023-12-28T01:50:01;14.82;;;6.10;;
32874;SDS011;40468;42.128;24.750;2023-12-28T01:51:32;12.43;;;5.63;;
32874;SDS011;40468;42.128;24.750;2023-12-28T01:53:05;14.80;;;6.65;;
32874;SDS011;40468;42.128;24.750;2023-12-28T01:54:38;15.35;;;6.68;;
32874;SDS011;40468;42.128;24.750;2023-12-28T01:56:12;12.20;;;5.07;;
32874;SDS011;40468;42.128;24.750;2023-12-28T01:57:43;12.63;;;6.10;;
32874;SDS011;40468;42.128;24.750;2023-12-28T01:59:16;14.93;;;6.68;;
32874;SDS011;40468;42.128;24.750;2023-12-28T02:00:49;17.23;;;6.27;;
32874;SDS011;40468;42.128;24.750;2023-12-28T02:02:21;23.85;;;7.78;;
32874;SDS011;40468;42.128;24.750;2023-12-28T02:03:54;12.32;;;6.15;;
32874;SDS011;40468;42.128;24.750;2023-12-28T02:05:25;12.93;;;5.97;;
32874;SDS011;40468;42.128;24.750;2023-12-28T02:06:58;18.55;;;6.95;;
32874;SDS011;40468;42.128;24.750;2023-12-28T02:08:30;12.85;;;6.32;;
32874;SDS011;40468;42.128;24.750;2023-12-28T02:10:02;22.95;;;7.63;;
32874;SDS011;40468;42.128;24.750;2023-12-28T02:11:35;15.50;;;7.97;;
32874;SDS011;40468;42.128;24.750;2023-12-28T02:13:07;17.95;;;7.85;;
32874;SDS011;40468;42.128;24.750;2023-12-28T02:14:38;19.85;;;8.18;;
32874;SDS011;40468;42.128;24.750;2023-12-28T02:16:11;22.08;;;8.93;;
32874;SDS011;40468;42.128;24.750;2023-12-28T02:17:47;24.98;;;8.55;;
32874;SDS011;40468;42.128;24.750;2023-12-28T02:19:32;27.17;;;10.07;;
32874;SDS011;40468;42.128;24.750;2023-12-28T02:21:13;22.17;;;8.40;;
32874;SDS011;40468;42.128;24.750;2023-12-28T02:22:46;23.63;;;8.85;;
32874;SDS011;40468;42.128;24.750;2023-12-28T02:24:17;19.45;;;8.35;;
32874;SDS011;40468;42.128;24.750;2023-12-28T02:25:51;22.17;;;8.77;;
32874;SDS011;40468;42.128;24.750;2023-12-28T02:27:21;27.67;;;9.35;;
32874;SDS011;40468;42.128;24.750;2023-12-28T02:28:53;22.17;;;9.65;;
32874;SDS011;40468;42.128;24.750;2023-12-28T02:30:25;24.05;;;9.60;;
32874;SDS011;40468;42.128;24.750;2023-12-28T02:31:58;21.52;;;8.80;;
32874;SDS011;40468;42.128;24.750;2023-12-28T02:33:36;17.67;;;8.75;;
32874;SDS011;40468;42.128;24.750;2023-12-28T02:35:16;18.52;;;8.38;;
32874;SDS011;40468;42.128;24.750;2023-12-28T02:36:50;20.25;;;8.38;;
32874;SDS011;40468;42.128;24.750;2023-12-28T02:38:23;26.25;;;8.93;;
32874;SDS011;40468;42.128;24.750;2023-12-28T02:39:56;19.55;;;8.50;;
32874;SDS011;40468;42.128;24.750;2023-12-28T02:41:29;20.08;;;8.30;;
32874;SDS011;40468;42.128;24.750;2023-12-28T02:43:02;21.38;;;8.75;;
32874;SDS011;40468;42.128;24.750;2023-12-28T02:44:33;24.13;;;9.40;;
32874;SDS011;40468;42.128;24.750;2023-12-28T02:46:05;24.85;;;9.00;;
32874;SDS011;40468;42.128;24.750;2023-12-28T02:47:36;18.75;;;8.30;;
32874;SDS011;40468;42.128;24.750;2023-12-28T02:49:08;21.48;;;8.20;;
32874;SDS011;40468;42.128;24.750;2023-12-28T02:50:42;22.00;;;8.52;;
32874;SDS011;40468;42.128;24.750;2023-12-28T02:52:13;16.67;;;7.95;;
32874;SDS011;40468;42.128;24.750;2023-12-28T02:53:44;23.23;;;8.25;;
32874;SDS011;40468;42.128;24.750;2023-12-28T02:55:16;19.77;;;8.70;;
32874;SDS011;40468;42.128;24.750;2023-12-28T02:56:48;24.38;;;8.45;;
32874;SDS011;40468;42.128;24.750;2023-12-28T02:58:20;22.90;;;8.35;;
32874;SDS011;40468;42.128;24.750;2023-12-28T02:59:51;18.85;;;8.05;;
32874;SDS011;40468;42.128;24.750;2023-12-28T03:01:22;19.05;;;7.53;;
32874;SDS011;40468;42.128;24.750;2023-12-28T03:02:53;22.20;;;8.15;;
32874;SDS011;40468;42.128;24.750;2023-12-28T03:04:25;19.35;;;7.60;;
32874;SDS011;40468;42.128;24.750;2023-12-28T03:05:56;19.13;;;8.38;;
32874;SDS011;40468;42.128;24.750;2023-12-28T03:07:28;17.25;;;7.95;;
32874;SDS011;40468;42.128;24.750;2023-12-28T03:08:58;17.15;;;7.72;;
32874;SDS011;40468;42.128;24.750;2023-12-28T03:10:30;21.63;;;8.15;;
32874;SDS011;40468;42.128;24.750;2023-12-28T03:12:02;15.40;;;7.80;;
32874;SDS011;40468;42.128;24.750;2023-12-28T03:13:35;19.15;;;7.60;;
32874;SDS011;40468;42.128;24.750;2023-12-28T03:15:06;16.95;;;7.45;;
32874;SDS011;40468;42.128;24.750;2023-12-28T03:16:37;15.07;;;7.55;;
32874;SDS011;40468;42.128;24.750;2023-12-28T03:18:08;19.10;;;8.90;;
32874;SDS011;40468;42.128;24.750;2023-12-28T03:19:40;19.17;;;8.10;;
32874;SDS011;40468;42.128;24.750;2023-12-28T03:21:11;17.60;;;8.43;;
32874;SDS011;40468;42.128;24.750;2023-12-28T03:22:43;16.15;;;7.47;;
32874;SDS011;40468;42.128;24.750;2023-12-28T03:24:13;17.52;;;8.05;;
32874;SDS011;40468;42.128;24.750;2023-12-28T03:25:45;19.13;;;8.57;;
32874;SDS011;40468;42.128;24.750;2023-12-28T03:27:17;22.02;;;8.27;;
32874;SDS011;40468;42.128;24.750;2023-12-28T03:28:49;21.60;;;8.93;;
32874;SDS011;40468;42.128;24.750;2023-12-28T03:30:20;18.25;;;9.27;;
32874;SDS011;40468;42.128;24.750;2023-12-28T03:31:51;16.95;;;8.77;;
32874;SDS011;40468;42.128;24.750;2023-12-28T03:33:22;20.55;;;8.68;;
32874;SDS011;40468;42.128;24.750;2023-12-28T03:34:54;23.17;;;9.52;;
32874;SDS011;40468;42.128;24.750;2023-12-28T03:36:25;19.40;;;9.63;;
32874;SDS011;40468;42.128;24.750;2023-12-28T03:37:57;23.23;;;9.77;;
32874;SDS011;40468;42.128;24.750;2023-12-28T03:39:27;25.80;;;9.80;;
32874;SDS011;40468;42.128;24.750;2023-12-28T03:40:59;19.50;;;10.13;;
32874;SDS011;40468;42.128;24.750;2023-12-28T03:42:31;23.00;;;8.88;;
32874;SDS011;40468;42.128;24.750;2023-12-28T03:44:03;22.85;;;9.30;;
32874;SDS011;40468;42.128;24.750;2023-12-28T03:45:34;18.52;;;8.77;;
32874;SDS011;40468;42.128;24.750;2023-12-28T03:47:06;28.02;;;9.38;;
32874;SDS011;40468;42.128;24.750;2023-12-28T03:48:37;21.88;;;9.38;;
32874;SDS011;40468;42.128;24.750;2023-12-28T03:50:09;20.60;;;9.25;;
32874;SDS011;40468;42.128;24.750;2023-12-28T03:51:40;23.98;;;9.43;;
32874;SDS011;40468;42.128;24.750;2023-12-28T03:53:11;26.80;;;10.43;;
32874;SDS011;40468;42.128;24.750;2023-12-28T03:54:43;24.58;;;9.90;;
32874;SDS011;40468;42.128;24.750;2023-12-28T03:56:19;24.35;;;9.80;;
32874;SDS011;40468;42.128;24.750;2023-12-28T03:57:53;23.17;;;9.15;;
32874;SDS011;40468;42.128;24.750;2023-12-28T03:59:24;26.33;;;9.77;;
32874;SDS011;40468;42.128;24.750;2023-12-28T04:00:55;20.30;;;9.35;;
32874;SDS011;40468;42.128;24.750;2023-12-28T04:02:27;21.63;;;8.75;;
32874;SDS011;40468;42.128;24.750;2023-12-28T04:04:01;23.92;;;9.60;;
32874;SDS011;40468;42.128;24.750;2023-12-28T04:05:33;25.23;;;9.45;;
32874;SDS011;40468;42.128;24.750;2023-12-28T04:07:04;22.80;;;9.50;;
32874;SDS011;40468;42.128;24.750;2023-12-28T04:08:37;20.88;;;9.15;;
32874;SDS011;40468;42.128;24.750;2023-12-28T04:10:08;26.13;;;10.00;;
32874;SDS011;40468;42.128;24.750;2023-12-28T04:11:40;21.92;;;10.50;;
32874;SDS011;40468;42.128;24.750;2023-12-28T04:13:13;27.05;;;9.55;;
32874;SDS011;40468;42.128;24.750;2023-12-28T04:14:45;19.77;;;9.30;;
32874;SDS011;40468;42.128;24.750;2023-12-28T04:16:18;21.13;;;9.13;;
32874;SDS011;40468;42.128;24.750;2023-12-28T04:17:52;26.65;;;9.65;;
32874;SDS011;40468;42.128;24.750;2023-12-28T04:19:23;19.67;;;9.75;;
32874;SDS011;40468;42.128;24.750;2023-12-28T04:20:55;17.75;;;8.70;;
32874;SDS011;40468;42.128;24.750;2023-12-28T04:22:26;24.95;;;8.95;;
32874;SDS011;40468;42.128;24.750;2023-12-28T04:23:58;22.48;;;9.70;;
32874;SDS011;40468;42.128;24.750;2023-12-28T04:25:28;21.23;;;8.32;;
32874;SDS011;40468;42.128;24.750;2023-12-28T04:27:00;18.67;;;8.55;;
32874;SDS011;40468;42.128;24.750;2023-12-28T04:28:32;26.67;;;8.13;;
32874;SDS011;40468;42.128;24.750;2023-12-28T04:31:39;18.63;;;8.05;;
32874;SDS011;40468;42.128;24.750;2023-12-28T04:33:10;13.90;;;7.20;;
32874;SDS011;40468;42.128;24.750;2023-12-28T04:34:42;14.68;;;7.85;;
32874;SDS011;40468;42.128;24.750;2023-12-28T04:36:13;16.95;;;8.05;;
32874;SDS011;40468;42.128;24.750;2023-12-28T04:37:45;19.05;;;8.15;;
32874;SDS011;40468;42.128;24.750;2023-12-28T04:39:15;19.38;;;7.90;;
32874;SDS011;40468;42.128;24.750;2023-12-28T04:40:48;18.55;;;8.50;;
32874;SDS011;40468;42.128;24.750;2023-12-28T04:42:18;23.55;;;9.32;;
32874;SDS011;40468;42.128;24.750;2023-12-28T04:43:51;19.77;;;9.07;;
32874;SDS011;40468;42.128;24.750;2023-12-28T04:45:22;17.10;;;8.65;;
32874;SDS011;40468;42.128;24.750;2023-12-28T04:46:54;19.75;;;8.70;;
32874;SDS011;40468;42.128;24.750;2023-12-28T04:48:25;19.73;;;8.57;;
32874;SDS011;40468;42.128;24.750;2023-12-28T04:49:57;20.38;;;7.82;;
32874;SDS011;40468;42.128;24.750;2023-12-28T04:51:28;14.90;;;7.85;;
32874;SDS011;40468;42.128;24.750;2023-12-28T04:52:59;21.25;;;8.13;;
32874;SDS011;40468;42.128;24.750;2023-12-28T04:54:30;19.23;;;7.03;;
32874;SDS011;40468;42.128;24.750;2023-12-28T04:56:03;17.27;;;7.55;;
32874;SDS011;40468;42.128;24.750;2023-12-28T04:57:34;17.52;;;6.82;;
32874;SDS011;40468;42.128;24.750;2023-12-28T04:59:07;15.40;;;7.35;;
32874;SDS011;40468;42.128;24.750;2023-12-28T05:00:38;15.07;;;6.72;;
32874;SDS011;40468;42.128;24.750;2023-12-28T05:02:09;15.57;;;7.07;;
32874;SDS011;40468;42.128;24.750;2023-12-28T05:03:40;21.45;;;7.15;;
32874;SDS011;40468;42.128;24.750;2023-12-28T05:05:12;17.58;;;7.13;;
32874;SDS011;40468;42.128;24.750;2023-12-28T05:06:43;18.63;;;7.05;;
32874;SDS011;40468;42.128;24.750;2023-12-28T05:08:15;25.35;;;9.88;;
32874;SDS011;40468;42.128;24.750;2023-12-28T05:09:46;19.63;;;8.02;;
32874;SDS011;40468;42.128;24.750;2023-12-28T05:11:18;16.17;;;7.75;;
32874;SDS011;40468;42.128;24.750;2023-12-28T05:12:48;20.58;;;6.88;;
32874;SDS011;40468;42.128;24.750;2023-12-28T05:14:22;16.30;;;5.95;;
32874;SDS011;40468;42.128;24.750;2023-12-28T05:15:52;15.10;;;6.18;;
32874;SDS011;40468;42.128;24.750;2023-12-28T05:17:24;13.73;;;6.43;;
32874;SDS011;40468;42.128;24.750;2023-12-28T05:18:55;15.43;;;6.25;;
32874;SDS011;40468;42.128;24.750;2023-12-28T05:20:27;16.48;;;5.85;;
32874;SDS011;40468;42.128;24.750;2023-12-28T05:21:57;14.50;;;5.57;;
32874;SDS011;40468;42.128;24.750;2023-12-28T05:23:33;11.48;;;5.78;;
32874;SDS011;40468;42.128;24.750;2023-12-28T05:25:04;13.43;;;6.00;;
32874;SDS011;40468;42.128;24.750;2023-12-28T05:28:07;12.27;;;6.10;;
32874;SDS011;40468;42.128;24.750;2023-12-28T05:29:41;14.98;;;5.65;;
32874;SDS011;40468;42.128;24.750;2023-12-28T05:31:11;16.58;;;6.50;;
32874;SDS011;40468;42.128;24.750;2023-12-28T05:32:44;15.82;;;6.55;;
32874;SDS011;40468;42.128;24.750;2023-12-28T05:34:15;14.23;;;6.60;;
32874;SDS011;40468;42.128;24.750;2023-12-28T05:35:46;16.67;;;6.40;;
32874;SDS011;40468;42.128;24.750;2023-12-28T05:37:18;12.85;;;6.50;;
32874;SDS011;40468;42.128;24.750;2023-12-28T05:38:49;13.38;;;6.20;;
32874;SDS011;40468;42.128;24.750;2023-12-28T05:40:21;15.90;;;6.30;;
32874;SDS011;40468;42.128;24.750;2023-12-28T05:41:52;14.25;;;5.90;;
32874;SDS011;40468;42.128;24.750;2023-12-28T05:43:23;12.05;;;5.63;;
32874;SDS011;40468;42.128;24.750;2023-12-28T05:44:56;10.68;;;5.07;;
32874;SDS011;40468;42.128;24.750;2023-12-28T05:46:27;11.88;;;5.10;;
32874;SDS011;40468;42.128;24.750;2023-12-28T05:47:58;15.10;;;5.13;;
32874;SDS011;40468;42.128;24.750;2023-12-28T05:49:30;15.45;;;6.40;;
32874;SDS011;40468;42.128;24.750;2023-12-28T05:51:01;15.38;;;5.28;;
32874;SDS011;40468;42.128;24.750;2023-12-28T05:52:32;10.70;;;5.03;;
32874;SDS011;40468;42.128;24.750;2023-12-28T05:54:03;13.60;;;5.50;;
32874;SDS011;40468;42.128;24.750;2023-12-28T05:55:35;10.82;;;4.63;;
32874;SDS011;40468;42.128;24.750;2023-12-28T05:57:06;10.73;;;5.13;;
32874;SDS011;40468;42.128;24.750;2023-12-28T05:58:38;12.75;;;4.82;;
32874;SDS011;40468;42.128;24.750;2023-12-28T06:00:11;9.70;;;5.28;;
32874;SDS011;40468;42.128;24.750;2023-12-28T06:01:43;9.32;;;4.10;;
32874;SDS011;40468;42.128;24.750;2023-12-28T06:03:14;9.05;;;4.75;;
32874;SDS011;40468;42.128;24.750;2023-12-28T06:04:46;12.30;;;4.78;;
32874;SDS011;40468;42.128;24.750;2023-12-28T06:06:18;8.77;;;4.20;;
32874;SDS011;40468;42.128;24.750;2023-12-28T06:07:49;11.60;;;4.53;;
32874;SDS011;40468;42.128;24.750;2023-12-28T06:09:20;12.68;;;5.13;;
32874;SDS011;40468;42.128;24.750;2023-12-28T06:10:51;12.75;;;5.63;;
32874;SDS011;40468;42.128;24.750;2023-12-28T06:12:23;14.63;;;5.47;;
32874;SDS011;40468;42.128;24.750;2023-12-28T06:13:55;13.93;;;5.40;;
32874;SDS011;40468;42.128;24.750;2023-12-28T06:15:27;18.17;;;7.35;;
32874;SDS011;40468;42.128;24.750;2023-12-28T06:16:58;12.30;;;6.30;;
32874;SDS011;40468;42.128;24.750;2023-12-28T06:18:29;13.50;;;5.88;;
32874;SDS011;40468;42.128;24.750;2023-12-28T06:20:01;12.90;;;6.20;;
32874;SDS011;40468;42.128;24.750;2023-12-28T06:21:32;15.07;;;6.22;;
32874;SDS011;40468;42.128;24.750;2023-12-28T06:23:04;15.80;;;6.25;;
32874;SDS011;40468;42.128;24.750;2023-12-28T06:24:37;16.58;;;7.22;;
32874;SDS011;40468;42.128;24.750;2023-12-28T06:26:09;13.05;;;6.35;;
32874;SDS011;40468;42.128;24.750;2023-12-28T06:27:41;17.48;;;7.55;;
32874;SDS011;40468;42.128;24.750;2023-12-28T06:29:12;23.05;;;8.20;;
32874;SDS011;40468;42.128;24.750;2023-12-28T06:30:45;40.80;;;17.23;;
32874;SDS011;40468;42.128;24.750;2023-12-28T06:32:16;45.08;;;19.08;;
32874;SDS011;40468;42.128;24.750;2023-12-28T06:33:47;30.77;;;13.40;;
32874;SDS011;40468;42.128;24.750;2023-12-28T06:35:19;22.50;;;9.88;;
32874;SDS011;40468;42.128;24.750;2023-12-28T06:36:50;20.88;;;9.13;;
32874;SDS011;40468;42.128;24.750;2023-12-28T06:38:22;16.35;;;8.43;;
32874;SDS011;40468;42.128;24.750;2023-12-28T06:39:52;21.83;;;8.55;;
32874;SDS011;40468;42.128;24.750;2023-12-28T06:41:24;20.77;;;8.35;;
32874;SDS011;40468;42.128;24.750;2023-12-28T06:42:56;18.08;;;8.07;;
32874;SDS011;40468;42.128;24.750;2023-12-28T06:44:27;23.48;;;8.40;;
32874;SDS011;40468;42.128;24.750;2023-12-28T06:45:59;13.57;;;6.72;;
32874;SDS011;40468;42.128;24.750;2023-12-28T06:47:31;16.90;;;7.88;;
32874;SDS011;40468;42.128;24.750;2023-12-28T06:49:02;19.10;;;8.05;;
32874;SDS011;40468;42.128;24.750;2023-12-28T06:50:36;16.08;;;8.23;;
32874;SDS011;40468;42.128;24.750;2023-12-28T06:52:06;17.67;;;7.60;;
32874;SDS011;40468;42.128;24.750;2023-12-28T06:53:38;18.92;;;7.68;;
32874;SDS011;40468;42.128;24.750;2023-12-28T06:55:09;17.05;;;7.13;;
32874;SDS011;40468;42.128;24.750;2023-12-28T06:56:41;19.35;;;8.52;;
32874;SDS011;40468;42.128;24.750;2023-12-28T06:58:12;49.08;;;21.33;;
32874;SDS011;40468;42.128;24.750;2023-12-28T06:59:44;38.95;;;16.10;;
32874;SDS011;40468;42.128;24.750;2023-12-28T07:01:16;38.50;;;15.75;;
32874;SDS011;40468;42.128;24.750;2023-12-28T07:02:49;23.80;;;10.38;;
32874;SDS011;40468;42.128;24.750;2023-12-28T07:04:19;20.48;;;8.75;;
32874;SDS011;40468;42.128;24.750;2023-12-28T07:05:51;20.10;;;8.73;;
32874;SDS011;40468;42.128;24.750;2023-12-28T07:07:22;19.17;;;8.82;;
32874;SDS011;40468;42.128;24.750;2023-12-28T07:08:54;18.52;;;8.70;;
32874;SDS011;40468;42.128;24.750;2023-12-28T07:10:25;20.58;;;8.43;;
32874;SDS011;40468;42.128;24.750;2023-12-28T07:11:56;19.33;;;7.97;;
32874;SDS011;40468;42.128;24.750;2023-12-28T07:13:28;14.88;;;7.97;;
32874;SDS011;40468;42.128;24.750;2023-12-28T07:14:59;19.13;;;8.93;;
32874;SDS011;40468;42.128;24.750;2023-12-28T07:16:32;19.33;;;9.68;;
32874;SDS011;40468;42.128;24.750;2023-12-28T07:18:03;24.13;;;9.85;;
32874;SDS011;40468;42.128;24.750;2023-12-28T07:19:35;21.33;;;9.70;;
32874;SDS011;40468;42.128;24.750;2023-12-28T07:21:06;18.48;;;8.95;;
32874;SDS011;40468;42.128;24.750;2023-12-28T07:22:39;18.98;;;9.35;;
32874;SDS011;40468;42.128;24.750;2023-12-28T07:24:10;18.80;;;8.35;;
32874;SDS011;40468;42.128;24.750;2023-12-28T07:25:43;25.08;;;9.85;;
32874;SDS011;40468;42.128;24.750;2023-12-28T07:27:13;17.92;;;8.77;;
32874;SDS011;40468;42.128;24.750;2023-12-28T07:28:45;19.15;;;9.13;;
32874;SDS011;40468;42.128;24.750;2023-12-28T07:30:18;18.83;;;9.13;;
32874;SDS011;40468;42.128;24.750;2023-12-28T07:31:53;20.23;;;9.50;;
32874;SDS011;40468;42.128;24.750;2023-12-28T07:34:55;20.63;;;8.80;;
32874;SDS011;40468;42.128;24.750;2023-12-28T07:36:26;17.02;;;8.27;;
32874;SDS011;40468;42.128;24.750;2023-12-28T07:37:58;16.58;;;8.23;;
32874;SDS011;40468;42.128;24.750;2023-12-28T07:39:29;17.92;;;9.40;;
32874;SDS011;40468;42.128;24.750;2023-12-28T07:41:01;15.93;;;9.05;;
32874;SDS011;40468;42.128;24.750;2023-12-28T07:42:32;17.90;;;9.30;;
32874;SDS011;40468;42.128;24.750;2023-12-28T07:44:04;19.17;;;8.50;;
32874;SDS011;40468;42.128;24.750;2023-12-28T07:45:35;17.05;;;8.98;;
32874;SDS011;40468;42.128;24.750;2023-12-28T07:47:10;22.58;;;9.90;;
32874;SDS011;40468;42.128;24.750;2023-12-28T07:48:42;17.33;;;9.05;;
32874;SDS011;40468;42.128;24.750;2023-12-28T07:50:14;20.17;;;9.48;;
32874;SDS011;40468;42.128;24.750;2023-12-28T07:51:45;21.50;;;9.05;;
32874;SDS011;40468;42.128;24.750;2023-12-28T07:53:17;21.40;;;8.93;;
32874;SDS011;40468;42.128;24.750;2023-12-28T07:54:47;22.48;;;9.60;;
32874;SDS011;40468;42.128;24.750;2023-12-28T07:56:19;22.85;;;10.38;;
32874;SDS011;40468;42.128;24.750;2023-12-28T07:57:50;25.45;;;10.00;;
32874;SDS011;40468;42.128;24.750;2023-12-28T07:59:22;26.42;;;10.13;;
32874;SDS011;40468;42.128;24.750;2023-12-28T08:00:53;18.17;;;9.10;;
32874;SDS011;40468;42.128;24.750;2023-12-28T08:02:26;20.70;;;9.10;;
32874;SDS011;40468;42.128;24.750;2023-12-28T08:03:57;22.10;;;9.60;;
32874;SDS011;40468;42.128;24.750;2023-12-28T08:05:29;19.13;;;8.90;;
32874;SDS011;40468;42.128;24.750;2023-12-28T08:07:00;21.70;;;9.43;;
32874;SDS011;40468;42.128;24.750;2023-12-28T08:08:32;24.20;;;9.30;;
32874;SDS011;40468;42.128;24.750;2023-12-28T08:10:03;25.90;;;10.57;;
32874;SDS011;40468;42.128;24.750;2023-12-28T08:11:35;21.08;;;9.05;;
32874;SDS011;40468;42.128;24.750;2023-12-28T08:13:06;25.05;;;10.35;;
32874;SDS011;40468;42.128;24.750;2023-12-28T08:14:38;21.98;;;8.82;;
32874;SDS011;40468;42.128;24.750;2023-12-28T08:16:09;22.42;;;9.93;;
32874;SDS011;40468;42.128;24.750;2023-12-28T08:17:42;20.08;;;9.02;;
32874;SDS011;40468;42.128;24.750;2023-12-28T08:19:12;20.83;;;9.18;;
32874;SDS011;40468;42.128;24.750;2023-12-28T08:20:44;23.58;;;9.57;;
32874;SDS011;40468;42.128;24.750;2023-12-28T08:22:15;19.70;;;9.50;;
32874;SDS011;40468;42.128;24.750;2023-12-28T08:23:47;19.15;;;8.90;;
32874;SDS011;40468;42.128;24.750;2023-12-28T08:25:19;18.13;;;8.95;;
32874;SDS011;40468;42.128;24.750;2023-12-28T08:26:50;21.20;;;9.50;;
32874;SDS011;40468;42.128;24.750;2023-12-28T08:28:23;20.70;;;9.43;;
32874;SDS011;40468;42.128;24.750;2023-12-28T08:29:53;18.95;;;8.95;;
32874;SDS011;40468;42.128;24.750;2023-12-28T08:31:25;22.00;;;10.13;;
32874;SDS011;40468;42.128;24.750;2023-12-28T08:32:57;21.13;;;9.45;;
32874;SDS011;40468;42.128;24.750;2023-12-28T08:34:29;19.58;;;8.07;;
32874;SDS011;40468;42.128;24.750;2023-12-28T08:36:02;19.42;;;7.35;;
32874;SDS011;40468;42.128;24.750;2023-12-28T08:37:34;19.33;;;7.18;;
32874;SDS011;40468;42.128;24.750;2023-12-28T08:39:05;14.63;;;6.55;;
32874;SDS011;40468;42.128;24.750;2023-12-28T08:40:37;15.85;;;6.47;;
32874;SDS011;40468;42.128;24.750;2023-12-28T08:42:08;17.65;;;7.93;;
32874;SDS011;40468;42.128;24.750;2023-12-28T08:43:39;21.77;;;7.93;;
32874;SDS011;40468;42.128;24.750;2023-12-28T08:45:11;16.42;;;7.90;;
32874;SDS011;40468;42.128;24.750;2023-12-28T08:46:42;17.35;;;7.75;;
32874;SDS011;40468;42.128;24.750;2023-12-28T08:48:15;17.85;;;7.45;;
32874;SDS011;40468;42.128;24.750;2023-12-28T08:49:46;18.00;;;6.60;;
32874;SDS011;40468;42.128;24.750;2023-12-28T08:51:17;15.98;;;7.03;;
32874;SDS011;40468;42.128;24.750;2023-12-28T08:52:48;15.80;;;7.50;;
32874;SDS011;40468;42.128;24.750;2023-12-28T08:54:20;14.02;;;7.22;;
32874;SDS011;40468;42.128;24.750;2023-12-28T08:55:51;20.92;;;7.93;;
32874;SDS011;40468;42.128;24.750;2023-12-28T08:57:23;15.35;;;7.53;;
32874;SDS011;40468;42.128;24.750;2023-12-28T08:58:53;20.25;;;8.50;;
32874;SDS011;40468;42.128;24.750;2023-12-28T09:00:25;21.92;;;8.60;;
32874;SDS011;40468;42.128;24.750;2023-12-28T09:01:56;21.17;;;9.15;;
32874;SDS011;40468;42.128;24.750;2023-12-28T09:03:29;21.45;;;9.35;;
32874;SDS011;40468;42.128;24.750;2023-12-28T09:05:00;16.52;;;7.88;;